createdAt,value
2024-02-13T00:00:00.745Z,24.40
2024-02-13T00:01:00.773Z,25.30
2024-02-13T00:02:00.752Z,25.20
2024-02-13T00:03:00.853Z,28.30
2024-02-13T00:04:00.795Z,26.60
2024-02-13T00:05:00.701Z,28.70
2024-02-13T00:06:00.730Z,28.20
2024-02-13T00:07:00.693Z,25.60
2024-02-13T00:08:00.730Z,26.50
2024-02-13T00:09:00.794Z,28.30
2024-02-13T00:10:22.371Z,27.60
2024-02-13T00:11:00.640Z,26.00
2024-02-13T00:12:00.730Z,28.30
2024-02-13T00:13:00.608Z,27.40
2024-02-13T00:14:00.600Z,25.80
2024-02-13T00:15:00.657Z,27.70
2024-02-13T00:16:00.598Z,28.40
2024-02-13T00:17:00.572Z,27.60
2024-02-13T00:18:00.667Z,28.60
2024-02-13T00:19:00.584Z,28.30
2024-02-13T00:20:00.579Z,26.40
2024-02-13T00:21:00.576Z,26.00
2024-02-13T00:22:00.548Z,27.10
2024-02-13T00:23:00.661Z,29.50
2024-02-13T00:24:00.563Z,27.40
2024-02-13T00:25:00.483Z,28.30
2024-02-13T00:26:00.497Z,27.10
2024-02-13T00:27:00.542Z,27.70
2024-02-13T00:28:00.490Z,27.50
2024-02-13T00:29:00.449Z,28.90
2024-02-13T00:30:00.435Z,29.70
2024-02-13T00:31:00.426Z,27.90
2024-02-13T00:32:00.410Z,28.40
2024-02-13T00:33:00.465Z,28.20
2024-02-13T00:34:00.442Z,28.30
2024-02-13T00:35:00.533Z,27.30
2024-02-13T00:36:00.430Z,29.10
2024-02-13T00:37:00.357Z,27.40
2024-02-13T00:38:00.406Z,29.00
2024-02-13T00:39:00.353Z,27.90
2024-02-13T00:40:00.337Z,27.10
2024-02-13T00:41:00.322Z,27.10
2024-02-13T00:42:00.312Z,26.80
2024-02-13T00:43:00.392Z,29.40
2024-02-13T00:44:00.294Z,26.00
2024-02-13T00:45:00.303Z,29.40
2024-02-13T00:46:00.305Z,28.20
2024-02-13T00:47:00.266Z,28.00
2024-02-13T00:48:00.367Z,27.10
2024-02-13T00:49:00.330Z,28.00
2024-02-13T00:50:00.262Z,27.80
2024-02-13T00:51:00.367Z,28.10
2024-02-13T00:52:00.206Z,25.60
2024-02-13T00:53:00.212Z,28.80
2024-02-13T00:54:00.193Z,27.00
2024-02-13T00:55:00.188Z,30.60
2024-02-13T00:56:00.241Z,28.60
2024-02-13T00:57:00.228Z,27.10
2024-02-13T00:58:00.145Z,27.30
2024-02-13T00:59:00.129Z,26.40
2024-02-13T01:00:00.151Z,27.90
2024-02-13T01:01:00.133Z,27.90
2024-02-13T01:02:00.115Z,28.60
2024-02-13T01:03:00.119Z,26.10
2024-02-13T01:04:00.110Z,28.60
2024-02-13T01:05:00.056Z,26.20
2024-02-13T01:06:00.106Z,28.00
2024-02-13T01:07:00.171Z,25.90
2024-02-13T01:08:00.048Z,26.70
2024-02-13T01:09:00.017Z,27.40
2024-02-13T01:09:59.998Z,28.00
2024-02-13T01:11:00.001Z,25.60
2024-02-13T01:12:00.047Z,23.50
2024-02-13T01:12:59.980Z,24.60
2024-02-13T01:13:59.969Z,24.40
2024-02-13T01:14:59.959Z,24.80
2024-02-13T01:15:59.951Z,26.70
2024-02-13T01:16:59.956Z,24.10
2024-02-13T01:17:59.987Z,25.20
2024-02-13T01:19:00.016Z,24.40
2024-02-13T01:19:59.900Z,24.00
2024-02-13T01:20:59.957Z,25.20
2024-02-13T01:21:59.871Z,24.20
2024-02-13T01:22:59.878Z,22.70
2024-02-13T01:23:59.869Z,21.70
2024-02-13T01:24:59.854Z,24.00
2024-02-13T01:25:59.833Z,22.40
2024-02-13T01:26:59.851Z,22.60
2024-02-13T01:27:59.810Z,23.40
2024-02-13T01:28:59.798Z,22.10
2024-02-13T01:29:59.855Z,22.30
2024-02-13T01:30:59.908Z,22.70
2024-02-13T01:31:59.784Z,21.90
2024-02-13T01:33:00.026Z,21.60
2024-02-13T01:33:59.828Z,21.70
2024-02-13T01:34:59.741Z,21.40
2024-02-13T01:35:59.770Z,23.20
2024-02-13T01:36:59.732Z,22.70
2024-02-13T01:37:59.710Z,21.40
2024-02-13T01:38:59.737Z,21.30
2024-02-13T01:39:59.681Z,21.00
2024-02-13T01:40:59.700Z,21.70
2024-02-13T01:41:59.658Z,19.50
2024-02-13T01:42:59.646Z,19.80
2024-02-13T01:43:59.637Z,21.40
2024-02-13T01:44:59.629Z,19.40
2024-02-13T01:45:59.611Z,21.10
2024-02-13T01:46:59.602Z,24.00
2024-02-13T01:47:59.702Z,20.50
2024-02-13T01:49:00.138Z,20.00
2024-02-13T01:49:59.565Z,20.80
2024-02-13T01:50:59.589Z,19.60
2024-02-13T01:51:59.581Z,20.40
2024-02-13T01:52:59.549Z,19.70
2024-02-13T01:53:59.600Z,21.20
2024-02-13T01:54:59.521Z,21.00
2024-02-13T01:55:59.506Z,20.00
2024-02-13T01:56:59.496Z,21.50
2024-02-13T01:57:59.505Z,19.90
2024-02-13T01:58:59.483Z,20.80
2024-02-13T01:59:59.612Z,19.80
2024-02-13T02:00:59.492Z,19.90
2024-02-13T02:01:59.453Z,19.70
2024-02-13T02:02:59.492Z,21.20
2024-02-13T02:03:59.472Z,20.80
2024-02-13T02:04:59.433Z,20.10
2024-02-13T02:05:59.457Z,19.60
2024-02-13T02:06:59.443Z,19.80
2024-02-13T02:07:59.378Z,21.70
2024-02-13T02:08:59.655Z,20.60
2024-02-13T02:09:59.357Z,19.80
2024-02-13T02:10:59.465Z,18.10
2024-02-13T02:11:59.381Z,20.30
2024-02-13T02:12:59.331Z,19.40
2024-02-13T02:13:59.316Z,20.40
2024-02-13T02:14:59.395Z,19.60
2024-02-13T02:15:59.325Z,19.00
2024-02-13T02:16:59.297Z,19.90
2024-02-13T02:17:59.428Z,18.90
2024-02-13T02:18:59.316Z,21.00
2024-02-13T02:19:59.273Z,18.50
2024-02-13T02:20:59.348Z,18.40
2024-02-13T02:21:59.227Z,19.90
2024-02-13T02:22:59.227Z,19.20
2024-02-13T02:23:59.218Z,19.80
2024-02-13T02:24:59.205Z,20.40
2024-02-13T02:25:59.202Z,17.70
2024-02-13T02:26:59.217Z,19.90
2024-02-13T02:27:59.169Z,19.90
2024-02-13T02:28:59.160Z,20.80
2024-02-13T02:29:59.215Z,19.00
2024-02-13T02:30:59.145Z,19.80
2024-02-13T02:31:59.121Z,19.80
2024-02-13T02:32:59.368Z,19.10
2024-02-13T02:33:59.114Z,20.00
2024-02-13T02:34:59.107Z,20.40
2024-02-13T02:35:59.147Z,18.80
2024-02-13T02:36:59.103Z,18.90
2024-02-13T02:37:59.094Z,20.60
2024-02-13T02:38:59.137Z,17.50
2024-02-13T02:39:59.056Z,17.60
2024-02-13T02:40:59.042Z,18.50
2024-02-13T02:41:59.071Z,18.90
2024-02-13T02:42:59.038Z,16.70
2024-02-13T02:43:59.032Z,18.20
2024-02-13T02:44:59.058Z,19.80
2024-02-13T02:45:59.000Z,20.30
2024-02-13T02:46:58.967Z,16.50
2024-02-13T02:47:59.073Z,17.80
2024-02-13T02:48:59.005Z,17.40
2024-02-13T02:49:58.960Z,15.80
2024-02-13T02:50:58.948Z,18.60
2024-02-13T02:51:58.918Z,17.60
2024-02-13T02:52:58.913Z,17.80
2024-02-13T02:53:58.983Z,17.10
2024-02-13T02:54:58.892Z,16.50
2024-02-13T02:55:58.877Z,16.00
2024-02-13T02:56:58.906Z,16.00
2024-02-13T02:57:58.862Z,16.70
2024-02-13T02:58:58.848Z,16.80
2024-02-13T02:59:58.887Z,17.50
2024-02-13T03:00:58.872Z,13.50
2024-02-13T03:01:58.808Z,16.80
2024-02-13T03:02:58.930Z,16.50
2024-02-13T03:03:58.825Z,17.50
2024-02-13T03:04:58.778Z,16.20
2024-02-13T03:05:58.831Z,15.20
2024-02-13T03:06:58.786Z,19.20
2024-02-13T03:07:58.740Z,17.10
2024-02-13T03:08:58.808Z,15.20
2024-02-13T03:09:58.723Z,14.50
2024-02-13T03:10:58.713Z,16.30
2024-02-13T03:11:58.778Z,13.90
2024-02-13T03:12:58.699Z,16.00
2024-02-13T03:13:58.681Z,14.60
2024-02-13T03:14:58.719Z,13.10
2024-02-13T03:15:58.670Z,15.00
2024-02-13T03:16:58.653Z,11.80
2024-02-13T03:17:58.777Z,14.90
2024-02-13T03:18:58.745Z,15.70
2024-02-13T03:19:58.651Z,15.00
2024-02-13T03:20:58.658Z,12.70
2024-02-13T03:21:58.598Z,13.90
2024-02-13T03:22:58.581Z,15.50
2024-02-13T03:23:58.634Z,14.30
2024-02-13T03:25:00.016Z,14.90
2024-02-13T03:25:58.549Z,13.40
2024-02-13T03:26:58.557Z,13.80
2024-02-13T03:27:58.534Z,16.60
2024-02-13T03:28:58.517Z,15.60
2024-02-13T03:29:58.540Z,13.20
2024-02-13T03:30:58.506Z,12.70
2024-02-13T03:31:58.490Z,13.70
2024-02-13T03:32:58.602Z,12.30
2024-02-13T03:33:58.572Z,13.30
2024-02-13T03:34:58.463Z,14.60
2024-02-13T03:35:58.447Z,13.00
2024-02-13T03:36:58.442Z,16.30
2024-02-13T03:37:58.421Z,12.30
2024-02-13T03:38:58.447Z,13.10
2024-02-13T03:39:58.406Z,13.80
2024-02-13T03:40:58.408Z,13.00
2024-02-13T03:41:58.371Z,14.00
2024-02-13T03:42:58.404Z,11.80
2024-02-13T03:43:58.354Z,12.50
2024-02-13T03:44:58.355Z,12.30
2024-02-13T03:45:58.356Z,13.40
2024-02-13T03:46:58.336Z,11.50
2024-02-13T03:47:58.430Z,13.30
2024-02-13T03:48:58.382Z,11.80
2024-02-13T03:49:58.351Z,12.00
2024-02-13T03:50:58.325Z,13.20
2024-02-13T03:51:58.269Z,12.10
2024-02-13T03:52:58.254Z,11.40
2024-02-13T03:53:58.248Z,11.70
2024-02-13T03:54:58.250Z,11.40
2024-02-13T03:55:58.221Z,11.80
2024-02-13T03:56:58.225Z,12.70
2024-02-13T03:57:58.205Z,11.10
2024-02-13T03:58:58.199Z,12.10
2024-02-13T03:59:58.218Z,11.90
2024-02-13T04:00:58.206Z,12.00
2024-02-13T04:01:58.161Z,12.30
2024-02-13T04:02:58.186Z,13.50
2024-02-13T04:03:58.162Z,9.00
2024-02-13T04:04:58.160Z,11.40
2024-02-13T04:05:58.182Z,10.10
2024-02-13T04:06:58.103Z,10.00
2024-02-13T04:07:58.095Z,10.70
2024-02-13T04:08:58.114Z,10.40
2024-02-13T04:09:58.087Z,9.10
2024-02-13T04:10:58.075Z,9.60
2024-02-13T04:11:58.056Z,9.00
2024-02-13T04:12:58.043Z,9.80
2024-02-13T04:13:58.031Z,11.00
2024-02-13T04:14:58.089Z,8.10
2024-02-13T04:15:58.016Z,10.70
2024-02-13T04:16:58.020Z,8.40
2024-02-13T04:17:58.034Z,9.10
2024-02-13T04:18:58.073Z,7.70
2024-02-13T04:19:57.980Z,7.80
2024-02-13T04:20:58.057Z,8.40
2024-02-13T04:21:57.955Z,7.00
2024-02-13T04:22:57.949Z,7.70
2024-02-13T04:23:58.017Z,8.80
2024-02-13T04:24:57.912Z,8.30
2024-02-13T04:25:57.903Z,9.60
2024-02-13T04:26:57.930Z,9.50
2024-02-13T04:27:57.888Z,8.20
2024-02-13T04:28:57.883Z,8.30
2024-02-13T04:29:57.956Z,7.60
2024-02-13T04:30:57.855Z,8.70
2024-02-13T04:31:57.836Z,8.40
2024-02-13T04:32:58.188Z,7.90
2024-02-13T04:33:57.954Z,9.00
2024-02-13T04:34:57.854Z,8.20
2024-02-13T04:35:57.812Z,9.30
2024-02-13T04:36:57.803Z,8.40
2024-02-13T04:37:57.786Z,7.20
2024-02-13T04:38:57.804Z,8.50
2024-02-13T04:39:57.755Z,8.20
2024-02-13T04:40:57.769Z,9.50
2024-02-13T04:41:57.816Z,7.60
2024-02-13T04:42:57.722Z,7.60
2024-02-13T04:43:57.714Z,6.80
2024-02-13T04:44:57.703Z,8.40
2024-02-13T04:45:57.695Z,7.30
2024-02-13T04:46:57.689Z,7.40
2024-02-13T04:47:57.836Z,8.60
2024-02-13T04:48:57.773Z,7.70
2024-02-13T04:49:57.649Z,7.60
2024-02-13T04:50:57.673Z,6.00
2024-02-13T04:51:57.638Z,6.90
2024-02-13T04:52:57.622Z,8.00
2024-02-13T04:53:57.653Z,7.10
2024-02-13T04:54:57.605Z,5.80
2024-02-13T04:55:57.599Z,7.30
2024-02-13T04:56:57.587Z,6.60
2024-02-13T04:57:57.583Z,6.50
2024-02-13T04:58:57.555Z,6.30
2024-02-13T04:59:57.567Z,6.90
2024-02-13T05:00:57.552Z,8.60
2024-02-13T05:01:57.521Z,8.50
2024-02-13T05:02:57.502Z,10.60
2024-02-13T05:03:57.527Z,9.30
2024-02-13T05:04:57.501Z,7.40
2024-02-13T05:05:57.542Z,6.60
2024-02-13T05:06:57.468Z,7.90
2024-02-13T05:07:57.480Z,7.40
2024-02-13T05:08:57.461Z,8.60
2024-02-13T05:09:57.438Z,8.60
2024-02-13T05:10:57.438Z,8.10
2024-02-13T05:11:57.469Z,7.00
2024-02-13T05:12:57.398Z,7.40
2024-02-13T05:13:59.830Z,7.30
2024-02-13T05:14:57.407Z,7.60
2024-02-13T05:15:57.376Z,8.80
2024-02-13T05:16:57.356Z,8.40
2024-02-13T05:17:57.417Z,7.70
2024-02-13T05:18:57.439Z,8.50
2024-02-13T05:19:57.332Z,6.90
2024-02-13T05:20:57.334Z,9.60
2024-02-13T05:21:57.306Z,7.50
2024-02-13T05:22:57.301Z,7.10
2024-02-13T05:23:57.309Z,7.70
2024-02-13T05:24:57.267Z,7.00
2024-02-13T05:25:57.256Z,10.20
2024-02-13T05:26:57.330Z,7.90
2024-02-13T05:27:57.256Z,6.40
2024-02-13T05:28:57.239Z,8.80
2024-02-13T05:29:57.253Z,8.60
2024-02-13T05:30:57.222Z,7.90
2024-02-13T05:31:57.197Z,8.20
2024-02-13T05:32:57.285Z,7.80
2024-02-13T05:33:57.277Z,8.80
2024-02-13T05:34:57.161Z,7.80
2024-02-13T05:35:57.197Z,9.00
2024-02-13T05:36:57.142Z,8.60
2024-02-13T05:37:57.146Z,6.60
2024-02-13T05:38:57.146Z,8.20
2024-02-13T05:39:57.130Z,7.80
2024-02-13T05:40:57.111Z,8.30
2024-02-13T05:41:57.125Z,7.00
2024-02-13T05:42:57.116Z,8.10
2024-02-13T05:43:57.082Z,10.00
2024-02-13T05:44:57.057Z,8.40
2024-02-13T05:45:57.049Z,8.20
2024-02-13T05:46:57.053Z,9.90
2024-02-13T05:47:57.167Z,8.40
2024-02-13T05:48:57.054Z,8.50
2024-02-13T05:49:57.001Z,8.60
2024-02-13T05:50:57.012Z,8.60
2024-02-13T05:51:56.990Z,8.50
2024-02-13T05:52:56.977Z,7.90
2024-02-13T05:53:57.257Z,7.40
2024-02-13T05:54:57.011Z,7.90
2024-02-13T05:55:56.957Z,9.70
2024-02-13T05:56:56.966Z,8.20
2024-02-13T05:57:56.932Z,9.40
2024-02-13T05:58:56.954Z,8.00
2024-02-13T05:59:56.989Z,8.90
2024-02-13T06:00:56.983Z,8.50
2024-02-13T06:01:56.934Z,9.50
2024-02-13T06:02:56.954Z,9.80
2024-02-13T06:03:57.028Z,10.30
2024-02-13T06:04:56.903Z,11.10
2024-02-13T06:05:57.055Z,9.80
2024-02-13T06:06:57.199Z,9.40
2024-02-13T06:07:56.812Z,10.10
2024-02-13T06:08:56.941Z,8.30
2024-02-13T06:09:56.800Z,9.00
2024-02-13T06:10:56.870Z,10.70
2024-02-13T06:11:56.822Z,10.10
2024-02-13T06:12:56.762Z,9.90
2024-02-13T06:14:07.015Z,9.90
2024-02-13T06:15:11.042Z,10.40
2024-02-13T06:16:14.340Z,10.30
2024-02-13T06:18:24.492Z,9.50
2024-02-13T06:19:25.052Z,9.20
2024-02-13T06:20:25.054Z,10.90
2024-02-13T06:21:27.438Z,9.60
2024-02-13T06:22:25.044Z,9.40
2024-02-13T06:23:25.015Z,10.40
2024-02-13T06:24:25.063Z,8.80
2024-02-13T06:25:24.972Z,11.90
2024-02-13T06:26:24.985Z,8.40
2024-02-13T06:27:24.938Z,9.90
2024-02-13T06:28:24.942Z,9.70
2024-02-13T06:29:24.977Z,9.70
2024-02-13T06:30:44.220Z,9.80
2024-02-13T06:32:42.635Z,10.90
2024-02-13T06:38:47.510Z,12.30
2024-02-13T06:39:48.419Z,11.70
2024-02-13T06:40:48.512Z,13.40
2024-02-13T06:41:48.504Z,12.40
2024-02-13T06:42:48.402Z,11.40
2024-02-13T06:43:48.391Z,16.90
2024-02-13T06:44:48.408Z,11.40
2024-02-13T06:45:48.353Z,12.70
2024-02-13T06:46:48.350Z,11.00
2024-02-13T06:47:48.457Z,12.50
2024-02-13T06:48:48.536Z,12.40
2024-02-13T06:49:48.344Z,12.80
2024-02-13T06:50:48.326Z,12.80
2024-02-13T06:51:48.287Z,12.70
2024-02-13T06:52:48.293Z,13.60
2024-02-13T06:53:48.275Z,12.50
2024-02-13T06:54:50.632Z,12.00
2024-02-13T06:55:48.254Z,11.60
2024-02-13T06:56:48.286Z,13.50
2024-02-13T06:57:48.272Z,13.10
2024-02-13T06:58:48.232Z,12.90
2024-02-13T06:59:48.264Z,15.20
2024-02-13T07:00:48.199Z,12.30
2024-02-13T07:01:48.238Z,12.90
2024-02-13T07:02:48.202Z,11.60
2024-02-13T07:03:48.207Z,11.40
2024-02-13T07:04:48.149Z,10.40
2024-02-13T07:05:48.288Z,12.20
2024-02-13T07:06:58.928Z,14.40
2024-02-13T07:07:48.762Z,14.00
2024-02-13T07:08:48.241Z,11.60
2024-02-13T07:09:48.249Z,12.70
2024-02-13T07:10:48.098Z,13.10
2024-02-13T07:11:48.102Z,10.90
2024-02-13T07:12:48.061Z,10.70
2024-02-13T07:13:48.031Z,12.50
2024-02-13T07:14:48.085Z,12.10
2024-02-13T07:15:48.137Z,11.40
2024-02-13T07:16:48.014Z,10.90
2024-02-13T07:17:56.197Z,12.80
2024-02-13T07:18:48.104Z,12.20
2024-02-13T07:19:48.052Z,11.90
2024-02-13T07:20:48.008Z,14.10
2024-02-13T07:21:47.980Z,11.80
2024-02-13T07:22:47.968Z,12.80
2024-02-13T07:23:47.970Z,13.70
2024-02-13T07:24:47.945Z,12.50
2024-02-13T07:25:47.905Z,10.60
2024-02-13T07:26:48.004Z,11.70
2024-02-13T07:27:47.908Z,11.40
2024-02-13T07:28:47.898Z,13.20
2024-02-13T07:29:47.951Z,12.80
2024-02-13T07:30:47.867Z,13.40
2024-02-13T07:31:47.851Z,12.80
2024-02-13T07:32:48.354Z,11.60
2024-02-13T07:33:47.979Z,12.40
2024-02-13T07:34:47.846Z,11.40
2024-02-13T07:35:47.909Z,9.20
2024-02-13T07:36:47.820Z,13.50
2024-02-13T07:37:47.802Z,13.20
2024-02-13T07:38:47.907Z,14.40
2024-02-13T07:39:47.762Z,13.20
2024-02-13T07:40:47.749Z,11.50
2024-02-13T07:41:47.809Z,11.30
2024-02-13T07:42:47.731Z,13.50
2024-02-13T07:43:47.722Z,11.20
2024-02-13T07:44:47.814Z,13.70
2024-02-13T07:45:47.696Z,10.10
2024-02-13T07:46:49.336Z,14.10
2024-02-13T07:47:47.720Z,12.00
2024-02-13T07:48:47.712Z,12.30
2024-02-13T07:49:47.663Z,12.50
2024-02-13T07:50:47.693Z,11.40
2024-02-13T07:51:47.638Z,12.00
2024-02-13T07:52:47.628Z,12.00
2024-02-13T07:53:49.349Z,12.20
2024-02-13T07:54:47.842Z,9.80
2024-02-13T07:55:47.586Z,11.50
2024-02-13T07:56:47.585Z,11.70
2024-02-13T07:57:47.585Z,12.50
2024-02-13T07:58:47.576Z,11.70
2024-02-13T07:59:47.581Z,10.90
2024-02-13T08:00:47.613Z,11.70
2024-02-13T08:01:47.521Z,10.90
2024-02-13T08:02:47.539Z,10.00
2024-02-13T08:03:47.533Z,12.40
2024-02-13T08:04:47.503Z,11.40
2024-02-13T08:05:47.562Z,12.90
2024-02-13T08:06:47.562Z,12.70
2024-02-13T08:07:47.474Z,11.10
2024-02-13T08:08:47.591Z,11.60
2024-02-13T08:09:47.435Z,12.50
2024-02-13T08:10:47.469Z,11.10
2024-02-13T08:11:47.449Z,11.30
2024-02-13T08:12:47.428Z,12.40
2024-02-13T08:13:47.408Z,14.80
2024-02-13T08:14:47.472Z,11.90
2024-02-13T08:15:47.375Z,12.80
2024-02-13T08:16:47.382Z,12.40
2024-02-13T08:17:47.476Z,13.50
2024-02-13T08:18:47.560Z,12.40
2024-02-13T08:19:47.393Z,11.70
2024-02-13T08:20:47.476Z,14.50
2024-02-13T08:21:47.346Z,13.80
2024-02-13T08:22:47.305Z,13.00
2024-02-13T08:23:47.412Z,11.90
2024-02-13T08:24:47.316Z,11.50
2024-02-13T08:25:47.275Z,10.50
2024-02-13T08:26:47.300Z,15.70
2024-02-13T08:27:47.241Z,13.00
2024-02-13T08:28:47.238Z,12.20
2024-02-13T08:29:47.281Z,12.80
2024-02-13T08:30:47.231Z,12.60
2024-02-13T08:31:47.195Z,12.00
2024-02-13T08:32:47.364Z,11.30
2024-02-13T08:33:47.453Z,12.60
2024-02-13T08:34:47.334Z,12.10
2024-02-13T08:35:47.247Z,12.80
2024-02-13T08:36:47.174Z,13.30
2024-02-13T08:37:47.162Z,12.70
2024-02-13T08:38:47.143Z,14.80
2024-02-13T08:39:47.121Z,12.40
2024-02-13T08:40:47.146Z,11.20
2024-02-13T08:41:47.166Z,12.90
2024-02-13T08:42:47.096Z,13.30
2024-02-13T08:43:47.072Z,14.60
2024-02-13T08:44:47.112Z,11.40
2024-02-13T08:45:47.052Z,14.00
2024-02-13T08:46:47.043Z,13.90
2024-02-13T08:47:47.108Z,12.60
2024-02-13T08:48:47.188Z,13.90
2024-02-13T08:49:47.228Z,10.50
2024-02-13T08:50:47.099Z,14.00
2024-02-13T08:51:47.015Z,12.70
2024-02-13T08:52:46.985Z,12.50
2024-02-13T08:53:47.053Z,12.80
2024-02-13T08:54:46.948Z,13.70
2024-02-13T08:55:46.949Z,11.00
2024-02-13T08:56:47.002Z,11.20
2024-02-13T08:57:46.925Z,12.10
2024-02-13T08:58:46.911Z,11.90
2024-02-13T08:59:46.916Z,11.80
2024-02-13T09:00:46.914Z,12.90
2024-02-13T09:01:46.873Z,10.50
2024-02-13T09:02:46.933Z,11.50
2024-02-13T09:03:46.874Z,12.10
2024-02-13T09:04:46.870Z,11.50
2024-02-13T09:05:46.940Z,10.70
2024-02-13T09:06:46.986Z,11.70
2024-02-13T09:07:46.822Z,11.20
2024-02-13T09:08:46.853Z,11.50
2024-02-13T09:09:46.798Z,9.30
2024-02-13T09:10:46.800Z,11.40
2024-02-13T09:11:46.856Z,9.80
2024-02-13T09:12:47.143Z,10.70
2024-02-13T09:13:46.749Z,9.30
2024-02-13T09:14:46.774Z,10.30
2024-02-13T09:15:46.774Z,11.40
2024-02-13T09:16:46.725Z,12.70
2024-02-13T09:17:47.016Z,10.90
2024-02-13T09:18:46.954Z,11.50
2024-02-13T09:19:46.804Z,10.00
2024-02-13T09:20:46.692Z,11.50
2024-02-13T09:21:46.671Z,11.70
2024-02-13T09:22:46.687Z,11.60
2024-02-13T09:23:46.670Z,12.00
2024-02-13T09:24:46.632Z,9.50
2024-02-13T09:25:46.611Z,12.60
2024-02-13T09:26:46.657Z,9.70
2024-02-13T09:27:46.614Z,11.70
2024-02-13T09:28:46.615Z,10.50
2024-02-13T09:29:46.624Z,9.90
2024-02-13T09:30:46.594Z,8.10
2024-02-13T09:31:47.743Z,11.10
2024-02-13T09:32:46.606Z,11.20
2024-02-13T09:33:46.841Z,10.60
2024-02-13T09:34:46.608Z,11.80
2024-02-13T09:35:46.599Z,10.70
2024-02-13T09:36:46.519Z,9.40
2024-02-13T09:37:46.490Z,9.90
2024-02-13T09:38:46.534Z,10.20
2024-02-13T09:39:46.486Z,9.80
2024-02-13T09:40:46.480Z,9.70
2024-02-13T09:41:46.464Z,9.00
2024-02-13T09:42:46.443Z,10.50
2024-02-13T09:43:48.348Z,8.60
2024-02-13T09:44:46.447Z,10.70
2024-02-13T09:45:46.410Z,9.00
2024-02-13T09:46:46.400Z,9.60
2024-02-13T09:47:46.547Z,8.60
2024-02-13T09:48:46.464Z,8.60
2024-02-13T09:49:46.384Z,9.50
2024-02-13T09:50:46.383Z,7.80
2024-02-13T09:51:46.359Z,8.50
2024-02-13T09:52:46.336Z,10.40
2024-02-13T09:53:46.384Z,9.50
2024-02-13T09:54:46.327Z,11.50
2024-02-13T09:55:46.305Z,10.60
2024-02-13T09:56:54.445Z,7.60
2024-02-13T09:57:55.642Z,9.40
2024-02-13T09:58:54.387Z,10.50
2024-02-13T09:59:54.510Z,9.10
2024-02-13T10:00:58.588Z,9.60
2024-02-13T10:02:58.006Z,7.50
2024-02-13T10:03:59.130Z,9.30
2024-02-13T10:04:58.918Z,9.30
2024-02-13T10:05:59.049Z,7.90
2024-02-13T10:06:59.082Z,8.00
2024-02-13T10:07:58.897Z,7.20
2024-02-13T10:08:58.987Z,9.20
2024-02-13T10:09:58.865Z,10.30
2024-02-13T10:10:58.862Z,8.20
2024-02-13T10:11:58.913Z,8.40
2024-02-13T10:12:58.860Z,8.80
2024-02-13T10:13:58.834Z,8.90
2024-02-13T10:14:58.880Z,8.90
2024-02-13T10:15:58.811Z,7.50
2024-02-13T10:17:00.692Z,7.60
2024-02-13T10:17:58.829Z,7.00
2024-02-13T10:18:59.362Z,6.60
2024-02-13T10:19:58.777Z,6.50
2024-02-13T10:20:58.873Z,8.00
2024-02-13T10:21:58.744Z,7.40
2024-02-13T10:22:58.765Z,6.70
2024-02-13T10:23:58.767Z,6.60
2024-02-13T10:24:58.714Z,7.10
2024-02-13T10:25:58.693Z,6.80
2024-02-13T10:26:58.780Z,6.00
2024-02-13T10:27:58.668Z,7.40
2024-02-13T10:28:58.666Z,6.40
2024-02-13T10:29:58.784Z,9.40
2024-02-13T10:30:58.646Z,7.10
2024-02-13T10:31:58.632Z,6.80
2024-02-13T10:32:58.662Z,7.70
2024-02-13T10:33:58.638Z,7.80
2024-02-13T10:34:58.634Z,8.00
2024-02-13T10:35:58.696Z,7.20
2024-02-13T10:36:58.592Z,7.70
2024-02-13T10:37:58.566Z,6.30
2024-02-13T10:38:58.595Z,7.20
2024-02-13T10:39:58.547Z,7.20
2024-02-13T10:40:58.582Z,5.20
2024-02-13T10:41:58.822Z,6.50
2024-02-13T10:42:58.519Z,5.30
2024-02-13T10:43:58.495Z,5.50
2024-02-13T10:44:58.594Z,8.10
2024-02-13T10:45:58.484Z,8.40
2024-02-13T10:46:58.476Z,6.70
2024-02-13T10:47:58.515Z,5.50
2024-02-13T10:49:07.718Z,7.40
2024-02-13T10:49:58.512Z,6.40
2024-02-13T10:50:58.806Z,5.80
2024-02-13T10:51:58.420Z,5.60
2024-02-13T10:52:58.418Z,7.30
2024-02-13T10:53:58.593Z,7.00
2024-02-13T10:54:58.392Z,3.80
2024-02-13T10:55:58.369Z,5.70
2024-02-13T10:56:58.410Z,6.00
2024-02-13T10:57:58.348Z,7.00
2024-02-13T10:58:58.500Z,4.10
2024-02-13T10:59:58.384Z,5.10
2024-02-13T11:00:58.386Z,4.90
2024-02-13T11:01:58.498Z,6.60
2024-02-13T11:02:58.479Z,5.40
2024-02-13T11:03:58.309Z,5.50
2024-02-13T11:04:58.409Z,6.30
2024-02-13T11:05:58.463Z,6.50
2024-02-13T11:06:58.306Z,4.00
2024-02-13T11:07:58.240Z,4.80
2024-02-13T11:08:58.400Z,5.30
2024-02-13T11:09:58.216Z,4.80
2024-02-13T11:10:58.231Z,4.90
2024-02-13T11:11:58.358Z,5.70
2024-02-13T11:12:58.186Z,5.60
2024-02-13T11:13:58.200Z,4.70
2024-02-13T11:14:58.245Z,4.30
2024-02-13T11:15:58.153Z,3.70
2024-02-13T11:16:58.140Z,4.50
2024-02-13T11:17:58.206Z,4.20
2024-02-13T11:18:58.202Z,5.40
2024-02-13T11:19:58.176Z,5.60
2024-02-13T11:20:58.142Z,6.80
2024-02-13T11:21:58.090Z,4.00
2024-02-13T11:22:58.104Z,5.30
2024-02-13T11:23:58.141Z,4.50
2024-02-13T11:24:58.074Z,5.10
2024-02-13T11:25:58.059Z,4.80
2024-02-13T11:26:58.068Z,4.20
2024-02-13T11:27:58.021Z,3.70
2024-02-13T11:28:58.018Z,3.50
2024-02-13T11:29:58.034Z,5.00
2024-02-13T11:30:57.989Z,5.10
2024-02-13T11:31:57.989Z,5.00
2024-02-13T11:32:58.022Z,4.30
2024-02-13T11:33:58.120Z,3.40
2024-02-13T11:34:58.006Z,4.50
2024-02-13T11:35:58.191Z,3.90
2024-02-13T11:36:57.943Z,4.80
2024-02-13T11:37:57.908Z,4.00
2024-02-13T11:38:57.971Z,3.90
2024-02-13T11:39:57.892Z,3.80
2024-02-13T11:40:57.916Z,4.40
2024-02-13T11:41:57.873Z,4.80
2024-02-13T11:42:57.863Z,3.80
2024-02-13T11:43:57.851Z,3.70
2024-02-13T11:44:57.845Z,3.10
2024-02-13T11:45:57.888Z,3.40
2024-02-13T11:46:57.831Z,3.50
2024-02-13T11:47:57.933Z,3.60
2024-02-13T11:48:57.962Z,4.20
2024-02-13T11:49:57.877Z,2.70
2024-02-13T11:50:57.804Z,3.90
2024-02-13T11:51:57.770Z,2.90
2024-02-13T11:52:57.761Z,3.40
2024-02-13T11:53:57.773Z,4.10
2024-02-13T11:54:57.752Z,4.30
2024-02-13T11:55:57.708Z,4.80
2024-02-13T11:56:57.909Z,3.60
2024-02-13T11:57:57.692Z,4.40
2024-02-13T11:58:57.683Z,3.40
2024-02-13T11:59:57.819Z,4.20
2024-02-13T12:00:57.715Z,4.40
2024-02-13T12:01:57.642Z,5.30
2024-02-13T12:02:57.703Z,3.00
2024-02-13T12:03:57.648Z,4.20
2024-02-13T12:04:57.623Z,4.30
2024-02-13T12:05:57.720Z,4.30
2024-02-13T12:06:57.610Z,4.10
2024-02-13T12:07:57.667Z,4.10
2024-02-13T12:08:57.609Z,3.00
2024-02-13T12:09:57.566Z,4.10
2024-02-13T12:10:57.557Z,4.10
2024-02-13T12:11:57.633Z,3.60
2024-02-13T12:12:57.555Z,2.90
2024-02-13T12:13:57.530Z,4.00
2024-02-13T12:14:57.591Z,3.80
2024-02-13T12:15:57.493Z,3.30
2024-02-13T12:16:57.529Z,3.70
2024-02-13T12:17:57.647Z,3.60
2024-02-13T12:18:57.606Z,4.50
2024-02-13T12:19:57.469Z,3.00
2024-02-13T12:20:57.549Z,3.90
2024-02-13T12:21:57.434Z,5.00
2024-02-13T12:22:57.421Z,3.30
2024-02-13T12:23:57.489Z,3.20
2024-02-13T12:24:57.450Z,4.30
2024-02-13T12:25:57.390Z,4.50
2024-02-13T12:26:57.410Z,4.60
2024-02-13T12:27:57.408Z,3.20
2024-02-13T12:28:57.345Z,3.30
2024-02-13T12:29:57.428Z,4.70
2024-02-13T12:30:57.326Z,3.30
2024-02-13T12:31:57.330Z,3.60
2024-02-13T12:32:57.442Z,3.70
2024-02-13T12:33:57.521Z,4.90
2024-02-13T12:34:57.357Z,3.30
2024-02-13T12:35:57.289Z,4.00
2024-02-13T12:36:57.307Z,2.80
2024-02-13T12:37:57.258Z,3.90
2024-02-13T12:38:57.255Z,3.40
2024-02-13T12:39:57.243Z,3.70
2024-02-13T12:40:57.219Z,2.30
2024-02-13T12:41:57.296Z,3.80
2024-02-13T12:42:57.208Z,4.80
2024-02-13T12:43:57.186Z,3.50
2024-02-13T12:44:57.306Z,5.20
2024-02-13T12:45:57.181Z,4.70
2024-02-13T12:46:57.165Z,3.50
2024-02-13T12:47:57.413Z,2.90
2024-02-13T12:48:57.521Z,3.60
2024-02-13T12:49:57.229Z,3.50
2024-02-13T12:50:57.304Z,4.20
2024-02-13T12:51:57.174Z,3.80
2024-02-13T12:52:57.105Z,3.70
2024-02-13T12:53:57.227Z,2.80
2024-02-13T12:54:57.077Z,4.40
2024-02-13T12:55:57.083Z,3.40
2024-02-13T12:56:57.097Z,4.50
2024-02-13T12:57:57.046Z,4.90
2024-02-13T12:58:57.039Z,6.20
2024-02-13T12:59:57.361Z,3.30
2024-02-13T13:00:57.084Z,4.50
2024-02-13T13:01:57.000Z,3.10
2024-02-13T13:02:56.997Z,2.50
2024-02-13T13:03:57.027Z,3.10
2024-02-13T13:04:56.959Z,3.60
2024-02-13T13:05:57.021Z,3.10
2024-02-13T13:06:56.966Z,3.80
2024-02-13T13:07:56.948Z,4.10
2024-02-13T13:08:58.154Z,4.10
2024-02-13T13:09:56.930Z,4.60
2024-02-13T13:10:56.908Z,5.10
2024-02-13T13:11:57.208Z,4.10